Villareales, Texas
Current Conditions -  °F | °C
As of 11:55 AM on Monday 24 Nov 2014 (Local Time) from KEBG Reporting Station
Clear Clear  
Wind Chill: 66°   Ceiling: Unl
Heat Index: 66°   Visibility: 10mi
Dew Point: 39°   Wind: 15mph
Humidity: 37%   Direction: 350°N
Pressure: 30.08"   Gusts: 21mph
Location:  26.5735°N, 98.695°W
Report Text: KEBG 241755Z AUTO 35013G18KT 10SM CLR 19/04 A3008 RMK AO2 T01900039 10190 20137
Loading
Personal Weather Stations






























Interactive Weather Map New forecast layout! Learn more

10-Day Weather Forecast

Advertisements
Track Severe Weather on mobile